createdAt,value
2023-05-01T00:01:23.382Z,83.07
2023-05-01T00:03:49.922Z,83.10
2023-05-01T00:06:16.401Z,83.13
2023-05-01T00:08:42.822Z,83.10
2023-05-01T00:11:09.167Z,83.12
2023-05-01T00:13:35.503Z,83.15
2023-05-01T00:16:01.888Z,83.10
2023-05-01T00:18:28.245Z,83.11
2023-05-01T00:20:54.617Z,83.11
2023-05-01T00:23:21.228Z,83.11
2023-05-01T00:25:47.591Z,83.11
2023-05-01T00:28:14.145Z,83.11
2023-05-01T00:30:40.512Z,83.12
2023-05-01T00:33:07.148Z,83.15
2023-05-01T00:35:33.578Z,83.21
2023-05-01T00:38:00.167Z,83.12
2023-05-01T00:40:26.541Z,83.17
2023-05-01T00:42:52.873Z,83.14
2023-05-01T00:45:19.261Z,83.16
2023-05-01T00:47:45.665Z,83.14
2023-05-01T00:50:12.121Z,83.08
2023-05-01T00:52:38.462Z,83.16
2023-05-01T00:55:04.797Z,83.17
2023-05-01T00:57:31.342Z,83.14
2023-05-01T00:59:58.096Z,83.14
2023-05-01T01:02:24.596Z,83.11
2023-05-01T01:04:51.788Z,83.11
2023-05-01T01:07:20.829Z,83.14
2023-05-01T01:09:47.174Z,83.10
2023-05-01T01:12:13.513Z,83.14
2023-05-01T01:14:39.852Z,83.17
2023-05-01T01:17:06.209Z,83.14
2023-05-01T01:19:32.696Z,83.16
2023-05-01T01:21:59.023Z,83.16
2023-05-01T01:24:25.571Z,83.14
2023-05-01T01:26:51.911Z,83.17
2023-05-01T01:29:18.255Z,83.19
2023-05-01T01:31:44.641Z,83.19
2023-05-01T01:34:11.249Z,83.12
2023-05-01T01:36:37.606Z,83.11
2023-05-01T01:39:03.953Z,83.21
2023-05-01T01:41:30.293Z,83.21
2023-05-01T01:43:56.634Z,83.12
2023-05-01T01:46:22.993Z,83.17
2023-05-01T01:48:49.336Z,83.12
2023-05-01T01:51:15.718Z,83.21
2023-05-01T01:53:42.071Z,83.19
2023-05-01T01:56:08.422Z,83.22
2023-05-01T01:58:34.763Z,83.22
2023-05-01T02:01:01.113Z,83.17
2023-05-01T02:03:27.874Z,83.21
2023-05-01T02:05:54.311Z,83.18
2023-05-01T02:08:20.657Z,83.16
2023-05-01T02:10:46.996Z,83.21
2023-05-01T02:13:13.329Z,83.21
2023-05-01T02:15:39.715Z,83.25
2023-05-01T02:18:06.165Z,83.23
2023-05-01T02:20:32.773Z,83.17
2023-05-01T02:22:59.116Z,83.20
2023-05-01T02:25:27.009Z,83.19
2023-05-01T02:27:54.838Z,83.31
2023-05-01T02:30:21.367Z,83.23
2023-05-01T02:32:47.799Z,83.17
2023-05-01T02:35:14.160Z,83.23
2023-05-01T02:37:40.498Z,83.28
2023-05-01T02:40:06.865Z,83.26
2023-05-01T02:42:33.208Z,83.31
2023-05-01T02:44:59.555Z,83.27
2023-05-01T02:47:26.051Z,83.28
2023-05-01T02:49:52.470Z,83.28
2023-05-01T02:52:19.029Z,83.30
2023-05-01T02:54:45.423Z,83.34
2023-05-01T02:57:11.773Z,83.33
2023-05-01T02:59:38.103Z,83.29
2023-05-01T03:02:04.664Z,83.30
2023-05-01T03:04:31.087Z,83.34
2023-05-01T03:06:57.755Z,83.32
2023-05-01T03:09:24.098Z,83.31
2023-05-01T03:11:50.659Z,83.33
2023-05-01T03:14:17.006Z,83.39
2023-05-01T03:16:43.607Z,83.34
2023-05-01T03:19:09.954Z,83.38
2023-05-01T03:21:36.296Z,83.34
2023-05-01T03:24:02.652Z,83.37
2023-05-01T03:26:29.016Z,83.38
2023-05-01T03:28:55.359Z,83.36
2023-05-01T03:31:21.710Z,83.39
2023-05-01T03:33:48.290Z,83.38
2023-05-01T03:36:14.636Z,83.37
2023-05-01T03:38:40.992Z,83.40
2023-05-01T03:41:07.340Z,83.38
2023-05-01T03:43:33.891Z,83.41
2023-05-01T03:46:00.300Z,83.43
2023-05-01T03:48:26.700Z,83.50
2023-05-01T03:50:53.060Z,83.43
2023-05-01T03:53:19.412Z,83.50
2023-05-01T03:55:45.960Z,83.44
2023-05-01T03:58:12.331Z,83.46
2023-05-01T04:00:38.687Z,83.44
2023-05-01T04:03:05.385Z,83.48
2023-05-01T04:05:31.883Z,83.44
2023-05-01T04:07:58.436Z,83.45
2023-05-01T04:10:24.774Z,83.44
2023-05-01T04:12:51.117Z,83.50
2023-05-01T04:15:17.462Z,83.43
2023-05-01T04:17:43.875Z,83.50
2023-05-01T04:20:10.304Z,83.47
2023-05-01T04:22:36.638Z,83.49
2023-05-01T04:25:02.988Z,83.51
2023-05-01T04:27:29.345Z,83.50
2023-05-01T04:29:55.891Z,83.55
2023-05-01T04:32:22.408Z,83.56
2023-05-01T04:34:48.767Z,83.61
2023-05-01T04:37:15.117Z,83.59
2023-05-01T04:39:41.467Z,83.50
2023-05-01T04:42:07.810Z,83.75
2023-05-01T04:44:34.353Z,83.79
2023-05-01T04:47:00.780Z,83.87
2023-05-01T04:49:27.213Z,83.85
2023-05-01T04:51:53.538Z,83.73
2023-05-01T04:54:19.884Z,83.64
2023-05-01T04:56:46.231Z,83.61
2023-05-01T04:59:12.562Z,83.60
2023-05-01T05:01:38.944Z,83.61
2023-05-01T05:04:05.431Z,83.62
2023-05-01T05:06:31.884Z,83.64
2023-05-01T05:08:58.236Z,83.63
2023-05-01T05:11:24.778Z,83.63
2023-05-01T05:13:51.112Z,83.66
2023-05-01T05:16:17.508Z,83.68
2023-05-01T05:18:43.885Z,83.64
2023-05-01T05:21:10.456Z,83.65
2023-05-01T05:23:36.828Z,83.66
2023-05-01T05:26:03.182Z,83.68
2023-05-01T05:28:29.521Z,83.70
2023-05-01T05:30:55.856Z,83.71
2023-05-01T05:33:22.219Z,83.74
2023-05-01T05:35:48.759Z,83.74
2023-05-01T05:38:15.097Z,83.77
2023-05-01T05:40:41.434Z,83.74
2023-05-01T05:43:07.769Z,83.73
2023-05-01T05:45:34.325Z,83.81
2023-05-01T05:48:00.699Z,83.84
2023-05-01T05:50:27.277Z,83.83
2023-05-01T05:52:53.611Z,83.80
2023-05-01T05:55:19.957Z,83.82
2023-05-01T05:57:46.513Z,83.84
2023-05-01T06:00:14.076Z,83.87
2023-05-01T06:02:40.688Z,83.86
2023-05-01T06:05:07.111Z,83.91
2023-05-01T06:07:33.474Z,83.94
2023-05-01T06:09:59.815Z,83.94
2023-05-01T06:12:26.139Z,83.97
2023-05-01T06:14:52.738Z,83.99
2023-05-01T06:17:19.083Z,83.97
2023-05-01T06:19:45.428Z,84.04
2023-05-01T06:22:11.838Z,84.00
2023-05-01T06:24:38.202Z,85.13
2023-05-01T06:27:04.576Z,84.85
2023-05-01T06:29:30.931Z,84.64
2023-05-01T06:31:57.302Z,84.80
2023-05-01T06:34:23.698Z,84.73
2023-05-01T06:36:50.259Z,84.52
2023-05-01T06:39:16.589Z,84.53
2023-05-01T06:41:42.929Z,84.46
2023-05-01T06:44:09.485Z,84.41
2023-05-01T06:46:35.858Z,84.41
2023-05-01T06:49:02.590Z,84.37
2023-05-01T06:51:28.916Z,84.31
2023-05-01T06:53:55.255Z,84.31
2023-05-01T06:56:21.609Z,84.27
2023-05-01T06:58:47.976Z,84.33
2023-05-01T07:01:14.340Z,84.44
2023-05-01T07:03:40.747Z,84.43
2023-05-01T07:06:07.190Z,84.44
2023-05-01T07:08:33.544Z,84.43
2023-05-01T07:10:59.890Z,84.43
2023-05-01T07:13:26.243Z,84.43
2023-05-01T07:15:54.429Z,84.42
2023-05-01T07:18:21.270Z,84.46
2023-05-01T07:20:47.613Z,84.43
2023-05-01T07:23:13.941Z,84.47
2023-05-01T07:25:40.582Z,84.47
2023-05-01T07:28:06.921Z,84.48
2023-05-01T07:30:33.294Z,84.43
2023-05-01T07:32:59.675Z,84.48
2023-05-01T07:35:26.053Z,84.43
2023-05-01T07:37:52.390Z,84.46
2023-05-01T07:40:18.733Z,84.47
2023-05-01T07:42:45.078Z,84.44
2023-05-01T07:45:11.517Z,84.54
2023-05-01T07:47:37.918Z,84.53
2023-05-01T07:50:04.285Z,84.50
2023-05-01T07:52:30.628Z,84.53
2023-05-01T07:54:56.996Z,84.55
2023-05-01T07:57:23.354Z,84.51
2023-05-01T07:59:49.712Z,84.51
2023-05-01T08:02:16.315Z,84.51
2023-05-01T08:04:42.695Z,84.60
2023-05-01T08:07:09.077Z,84.56
2023-05-01T08:09:35.417Z,84.57
2023-05-01T08:12:01.756Z,84.54
2023-05-01T08:14:28.113Z,84.51
2023-05-01T08:16:54.464Z,84.57
2023-05-01T08:19:20.811Z,84.53
2023-05-01T08:21:47.162Z,84.52
2023-05-01T08:24:13.511Z,84.44
2023-05-01T08:26:39.867Z,84.53
2023-05-01T08:29:06.202Z,84.54
2023-05-01T08:31:32.579Z,84.47
2023-05-01T08:33:58.962Z,84.52
2023-05-01T08:36:25.300Z,84.48
2023-05-01T08:38:51.662Z,84.54
2023-05-01T08:41:17.999Z,84.57
2023-05-01T08:43:44.341Z,84.60
2023-05-01T08:46:10.758Z,84.59
2023-05-01T08:48:37.162Z,84.60
2023-05-01T08:51:03.544Z,84.58
2023-05-01T08:53:29.881Z,84.61
2023-05-01T08:55:56.221Z,84.58
2023-05-01T08:58:22.561Z,84.60
2023-05-01T09:00:48.907Z,84.79
2023-05-01T09:03:15.336Z,84.73
2023-05-01T09:05:41.773Z,84.75
2023-05-01T09:08:08.113Z,84.67
2023-05-01T09:10:34.480Z,84.75
2023-05-01T09:13:00.878Z,84.67
2023-05-01T09:15:27.235Z,84.72
2023-05-01T09:17:53.665Z,84.70
2023-05-01T09:20:20.093Z,84.65
2023-05-01T09:22:46.486Z,84.76
2023-05-01T09:25:13.054Z,84.70
2023-05-01T09:27:39.403Z,84.69
2023-05-01T09:30:05.749Z,84.74
2023-05-01T09:32:32.129Z,85.10
2023-05-01T09:34:58.515Z,84.80
2023-05-01T09:37:24.863Z,85.11
2023-05-01T09:39:51.412Z,85.15
2023-05-01T09:42:17.751Z,85.60
2023-05-01T09:44:44.096Z,85.75
2023-05-01T09:47:10.438Z,86.01
2023-05-01T09:49:36.769Z,86.01
2023-05-01T09:52:03.350Z,86.07
2023-05-01T09:54:29.710Z,86.10
2023-05-01T09:56:56.087Z,85.97
2023-05-01T09:59:22.449Z,85.93
2023-05-01T10:01:49.164Z,85.93
2023-05-01T10:04:15.607Z,85.94
2023-05-01T10:06:42.032Z,85.86
2023-05-01T10:09:08.472Z,85.87
2023-05-01T10:11:34.847Z,85.88
2023-05-01T10:14:01.658Z,85.83
2023-05-01T10:16:28.062Z,85.82
2023-05-01T10:18:55.624Z,85.77
2023-05-01T10:21:22.030Z,85.79
2023-05-01T10:23:48.585Z,85.84
2023-05-01T10:26:14.927Z,85.80
2023-05-01T10:28:41.277Z,85.84
2023-05-01T10:31:07.737Z,85.91
2023-05-01T10:33:34.350Z,85.86
2023-05-01T10:36:00.711Z,85.91
2023-05-01T10:38:27.053Z,85.86
2023-05-01T10:40:53.408Z,85.81
2023-05-01T10:43:19.743Z,85.85
2023-05-01T10:45:46.311Z,85.90
2023-05-01T10:48:12.672Z,85.83
2023-05-01T10:50:39.025Z,85.85
2023-05-01T10:53:05.593Z,85.87
2023-05-01T10:55:31.954Z,85.96
2023-05-01T10:57:58.290Z,85.93
2023-05-01T11:00:24.624Z,85.99
2023-05-01T11:02:51.081Z,85.94
2023-05-01T11:05:23.661Z,85.97
2023-05-01T11:07:55.314Z,85.96
2023-05-01T11:10:21.656Z,85.87
2023-05-01T11:12:47.996Z,85.87
2023-05-01T11:15:14.348Z,85.80
2023-05-01T11:17:40.763Z,85.87
2023-05-01T11:20:07.170Z,85.85
2023-05-01T11:22:33.792Z,85.80
2023-05-01T11:25:00.179Z,85.88
2023-05-01T11:27:26.539Z,85.83
2023-05-01T11:29:52.872Z,85.87
2023-05-01T11:32:19.359Z,85.85
2023-05-01T11:34:45.884Z,85.88
2023-05-01T11:37:12.439Z,85.91
2023-05-01T11:39:38.739Z,85.85
2023-05-01T11:42:05.094Z,85.87
2023-05-01T11:44:31.662Z,85.98
2023-05-01T11:46:58.034Z,85.95
2023-05-01T11:49:24.612Z,85.91
2023-05-01T11:51:50.977Z,85.93
2023-05-01T11:54:17.530Z,85.84
2023-05-01T11:56:43.876Z,85.78
2023-05-01T11:59:10.215Z,85.78
2023-05-01T12:01:36.572Z,85.66
2023-05-01T12:04:03.027Z,85.75
2023-05-01T12:06:29.557Z,85.73
2023-05-01T12:08:55.947Z,85.78
2023-05-01T12:11:22.513Z,85.74
2023-05-01T12:13:48.879Z,85.74
2023-05-01T12:16:15.215Z,85.82
2023-05-01T12:18:41.557Z,85.78
2023-05-01T12:21:07.899Z,85.82
2023-05-01T12:23:34.460Z,85.74
2023-05-01T12:26:01.013Z,85.73
2023-05-01T12:28:27.601Z,85.82
2023-05-01T12:30:53.996Z,85.76
2023-05-01T12:33:20.705Z,85.69
2023-05-01T12:35:47.235Z,85.58
2023-05-01T12:38:13.653Z,85.56
2023-05-01T12:40:40.030Z,85.69
2023-05-01T12:43:06.613Z,85.65
2023-05-01T12:45:32.978Z,85.63
2023-05-01T12:47:59.336Z,85.66
2023-05-01T12:50:25.733Z,85.60
2023-05-01T12:52:52.100Z,85.71
2023-05-01T12:55:18.603Z,85.72
2023-05-01T12:57:44.945Z,85.60
2023-05-01T13:00:11.485Z,85.64
2023-05-01T13:02:37.868Z,85.50
2023-05-01T13:05:04.237Z,85.53
2023-05-01T13:07:30.871Z,85.60
2023-05-01T13:09:57.462Z,85.60
2023-05-01T13:12:24.143Z,85.62
2023-05-01T13:14:50.493Z,85.56
2023-05-01T13:17:16.908Z,85.49
2023-05-01T13:19:43.288Z,85.40
2023-05-01T13:22:09.644Z,85.41
2023-05-01T13:24:35.975Z,85.32
2023-05-01T13:27:04.855Z,85.41
2023-05-01T13:29:31.444Z,85.38
2023-05-01T13:31:57.799Z,85.46
2023-05-01T13:34:24.400Z,85.55
2023-05-01T13:36:50.729Z,85.35
2023-05-01T13:39:19.001Z,85.42
2023-05-01T13:41:46.625Z,85.34
2023-05-01T13:44:12.981Z,85.27
2023-05-01T13:46:39.538Z,85.36
2023-05-01T13:49:06.332Z,85.31
2023-05-01T13:51:32.677Z,85.30
2023-05-01T13:53:59.039Z,85.31
2023-05-01T13:56:25.607Z,85.37
2023-05-01T13:58:52.175Z,85.59
2023-05-01T14:01:18.597Z,85.40
2023-05-01T14:03:45.390Z,85.29
2023-05-01T14:06:12.019Z,85.45
2023-05-01T14:08:38.602Z,85.43
2023-05-01T14:11:04.948Z,85.42
2023-05-01T14:13:31.297Z,85.30
2023-05-01T14:15:57.655Z,85.22
2023-05-01T14:18:24.004Z,85.37
2023-05-01T14:20:50.354Z,85.28
2023-05-01T14:23:16.756Z,85.32
2023-05-01T14:25:43.136Z,85.44
2023-05-01T14:28:09.516Z,85.24
2023-05-01T14:30:36.078Z,85.34
2023-05-01T14:33:02.474Z,85.21
2023-05-01T14:35:28.877Z,85.24
2023-05-01T14:37:55.220Z,85.25
2023-05-01T14:40:21.793Z,85.42
2023-05-01T14:42:48.125Z,85.48
2023-05-01T14:45:14.473Z,85.51
2023-05-01T14:47:40.833Z,85.58
2023-05-01T14:50:08.429Z,85.52
2023-05-01T14:52:34.761Z,85.47
2023-05-01T14:55:01.362Z,85.40
2023-05-01T14:57:29.126Z,85.35
2023-05-01T14:59:55.865Z,85.37
2023-05-01T15:02:22.354Z,85.42
2023-05-01T15:04:49.014Z,85.45
2023-05-01T15:07:15.385Z,85.52
2023-05-01T15:09:41.971Z,85.56
2023-05-01T15:12:08.321Z,85.49
2023-05-01T15:14:34.902Z,85.49
2023-05-01T15:17:01.253Z,85.55
2023-05-01T15:19:27.834Z,85.69
2023-05-01T15:21:54.404Z,85.73
2023-05-01T15:24:20.733Z,85.65
2023-05-01T15:26:47.291Z,85.68
2023-05-01T15:29:14.488Z,85.65
2023-05-01T15:31:41.089Z,85.58
2023-05-01T15:34:07.531Z,85.70
2023-05-01T15:36:34.095Z,85.65
2023-05-01T15:39:00.428Z,85.61
2023-05-01T15:41:27.015Z,85.66
2023-05-01T15:43:53.384Z,85.65
2023-05-01T15:46:20.039Z,85.64
2023-05-01T15:48:46.774Z,85.67
2023-05-01T15:51:13.115Z,85.64
2023-05-01T15:53:39.444Z,85.56
2023-05-01T15:56:05.789Z,85.55
2023-05-01T15:58:32.140Z,85.62
2023-05-01T16:00:58.505Z,85.59
2023-05-01T16:03:24.958Z,85.56
2023-05-01T16:05:51.645Z,85.48
2023-05-01T16:08:18.204Z,85.44
2023-05-01T16:10:44.782Z,85.44
2023-05-01T16:13:11.167Z,85.45
2023-05-01T16:15:38.234Z,85.50
2023-05-01T16:18:04.721Z,85.57
2023-05-01T16:20:31.085Z,85.48
2023-05-01T16:22:57.421Z,85.45
2023-05-01T16:25:23.761Z,85.44
2023-05-01T16:27:50.096Z,85.48
2023-05-01T16:30:16.429Z,85.44
2023-05-01T16:32:42.813Z,85.51
2023-05-01T16:35:09.191Z,85.51
2023-05-01T16:37:35.755Z,85.52
2023-05-01T16:40:02.419Z,85.51
2023-05-01T16:42:29.242Z,85.55
2023-05-01T16:44:55.821Z,85.49
2023-05-01T16:47:22.165Z,85.56
2023-05-01T16:49:48.494Z,85.60
2023-05-01T16:52:14.833Z,85.61
2023-05-01T16:54:41.380Z,85.54
2023-05-01T16:57:07.964Z,85.59
2023-05-01T16:59:34.300Z,85.57
2023-05-01T17:02:00.718Z,85.59
2023-05-01T17:04:27.184Z,85.61
2023-05-01T17:06:53.661Z,85.70
2023-05-01T17:09:20.068Z,85.59
2023-05-01T17:11:46.618Z,85.57
2023-05-01T17:14:12.946Z,85.62
2023-05-01T17:16:39.621Z,85.55
2023-05-01T17:19:06.202Z,85.66
2023-05-01T17:21:32.759Z,85.62
2023-05-01T17:23:59.367Z,85.54
2023-05-01T17:26:25.738Z,85.70
2023-05-01T17:28:52.085Z,85.63
2023-05-01T17:31:19.912Z,85.60
2023-05-01T17:33:48.332Z,85.60
2023-05-01T17:36:14.935Z,85.62
2023-05-01T17:38:41.271Z,85.61
2023-05-01T17:41:07.615Z,85.61
2023-05-01T17:43:33.962Z,85.56
2023-05-01T17:46:00.446Z,85.58
2023-05-01T17:48:26.840Z,85.61
2023-05-01T17:50:53.186Z,85.65
2023-05-01T17:53:19.528Z,85.63
2023-05-01T17:55:46.101Z,85.67
2023-05-01T17:58:12.452Z,85.65
2023-05-01T18:00:38.806Z,85.64
2023-05-01T18:03:05.248Z,85.67
2023-05-01T18:05:31.668Z,85.75
2023-05-01T18:07:58.017Z,85.69
2023-05-01T18:10:25.341Z,85.67
2023-05-01T18:12:52.348Z,85.70
2023-05-01T18:15:22.483Z,85.67
2023-05-01T18:17:49.504Z,85.72
2023-05-01T18:20:16.129Z,85.77
2023-05-01T18:22:42.698Z,85.75
2023-05-01T18:25:09.058Z,85.74
2023-05-01T18:27:35.706Z,85.73
2023-05-01T18:30:02.329Z,85.82
2023-05-01T18:32:39.281Z,85.78
2023-05-01T18:35:12.997Z,85.75
2023-05-01T18:37:40.574Z,85.74
2023-05-01T18:40:06.934Z,85.74
2023-05-01T18:42:33.268Z,85.75
2023-05-01T18:44:59.609Z,85.76
2023-05-01T18:47:26.276Z,85.78
2023-05-01T18:49:52.677Z,85.77
2023-05-01T18:52:19.021Z,85.75
2023-05-01T18:54:45.375Z,85.72
2023-05-01T18:57:11.729Z,85.80
2023-05-01T18:59:38.066Z,85.75
2023-05-01T19:02:04.451Z,85.72
2023-05-01T19:04:32.142Z,85.65
2023-05-01T19:06:59.417Z,85.71
2023-05-01T19:09:25.802Z,85.61
2023-05-01T19:11:52.149Z,85.59
2023-05-01T19:14:18.702Z,85.65
2023-05-01T19:16:45.145Z,85.56
2023-05-01T19:19:11.611Z,85.56
2023-05-01T19:21:37.973Z,85.54
2023-05-01T19:24:04.823Z,85.52
2023-05-01T19:26:31.194Z,85.56
2023-05-01T19:28:58.161Z,85.52
2023-05-01T19:31:24.552Z,85.52
2023-05-01T19:33:50.909Z,85.62
2023-05-01T19:36:17.262Z,85.54
2023-05-01T19:38:43.825Z,85.51
2023-05-01T19:41:10.169Z,85.57
2023-05-01T19:43:36.508Z,85.54
2023-05-01T19:46:02.920Z,85.55
2023-05-01T19:48:29.498Z,85.57
2023-05-01T19:50:55.850Z,85.65
2023-05-01T19:53:22.182Z,85.66
2023-05-01T19:55:48.528Z,85.69
2023-05-01T19:58:15.155Z,85.65
2023-05-01T20:00:41.501Z,85.67
2023-05-01T20:03:08.192Z,85.66
2023-05-01T20:05:34.595Z,85.67
2023-05-01T20:08:00.966Z,85.63
2023-05-01T20:10:27.330Z,85.62
2023-05-01T20:12:53.689Z,85.73
2023-05-01T20:15:20.272Z,85.68
2023-05-01T20:17:46.642Z,85.79
2023-05-01T20:20:13.080Z,85.75
2023-05-01T20:22:39.440Z,85.67
2023-05-01T20:25:07.458Z,85.58
2023-05-01T20:27:35.228Z,85.60
2023-05-01T20:30:01.854Z,85.60
2023-05-01T20:32:28.451Z,85.67
2023-05-01T20:34:54.850Z,85.66
2023-05-01T20:37:21.432Z,85.62
2023-05-01T20:39:47.908Z,85.73
2023-05-01T20:42:14.493Z,85.67
2023-05-01T20:44:40.839Z,85.62
2023-05-01T20:47:07.417Z,85.66
2023-05-01T20:49:33.747Z,85.66
2023-05-01T20:52:01.134Z,85.70
2023-05-01T20:54:27.475Z,85.72
2023-05-01T20:56:54.020Z,85.72
2023-05-01T20:59:20.575Z,85.71
2023-05-01T21:01:46.937Z,85.69
2023-05-01T21:04:13.616Z,85.77
2023-05-01T21:06:40.392Z,85.74
2023-05-01T21:09:06.793Z,85.74
2023-05-01T21:11:33.136Z,85.76
2023-05-01T21:13:59.489Z,85.78
2023-05-01T21:16:25.856Z,85.77
2023-05-01T21:18:52.235Z,85.87
2023-05-01T21:21:18.819Z,85.76
2023-05-01T21:23:45.160Z,85.76
2023-05-01T21:26:11.495Z,85.82
2023-05-01T21:28:37.828Z,85.85
2023-05-01T21:31:04.422Z,85.82
2023-05-01T21:33:30.986Z,85.73
2023-05-01T21:35:57.322Z,85.79
2023-05-01T21:38:23.884Z,85.76
2023-05-01T21:40:50.477Z,85.71
2023-05-01T21:43:16.822Z,85.74
2023-05-01T21:45:43.407Z,85.80
2023-05-01T21:48:10.021Z,85.70
2023-05-01T21:50:36.373Z,85.74
2023-05-01T21:53:02.703Z,85.70
2023-05-01T21:55:29.050Z,85.67
2023-05-01T21:57:55.411Z,85.65
2023-05-01T22:00:21.764Z,85.66
2023-05-01T22:02:48.194Z,85.66
2023-05-01T22:05:14.869Z,85.60
2023-05-01T22:07:41.198Z,85.82
2023-05-01T22:10:07.743Z,85.61
2023-05-01T22:12:34.074Z,85.73
2023-05-01T22:15:00.417Z,85.84
2023-05-01T22:17:27.037Z,85.72
2023-05-01T22:19:53.383Z,85.70
2023-05-01T22:22:19.927Z,85.89
2023-05-01T22:24:46.286Z,85.78
2023-05-01T22:27:12.848Z,85.98
2023-05-01T22:29:39.194Z,85.74
2023-05-01T22:32:05.577Z,85.62
2023-05-01T22:34:31.953Z,85.68
2023-05-01T22:36:58.293Z,85.99
2023-05-01T22:39:24.836Z,85.89
2023-05-01T22:41:51.378Z,85.76
2023-05-01T22:44:17.996Z,85.91
2023-05-01T22:46:44.524Z,85.96
2023-05-01T22:49:11.015Z,85.90
2023-05-01T22:51:37.371Z,85.84
2023-05-01T22:54:03.722Z,85.72
2023-05-01T22:56:30.075Z,85.89
2023-05-01T22:58:56.425Z,85.87
2023-05-01T23:01:22.810Z,85.79
2023-05-01T23:03:49.325Z,85.81
2023-05-01T23:06:15.788Z,85.77
2023-05-01T23:08:42.393Z,85.75
2023-05-01T23:11:08.949Z,85.89
2023-05-01T23:13:35.299Z,85.79
2023-05-01T23:16:01.681Z,85.73
2023-05-01T23:18:28.093Z,85.94
2023-05-01T23:20:54.472Z,85.78
2023-05-01T23:23:21.037Z,85.91
2023-05-01T23:25:47.371Z,85.71
2023-05-01T23:28:13.714Z,85.75
2023-05-01T23:30:40.075Z,85.75
2023-05-01T23:33:06.487Z,85.79
2023-05-01T23:35:32.846Z,85.79
2023-05-01T23:38:00.059Z,85.52
2023-05-01T23:40:26.416Z,85.87
2023-05-01T23:42:52.771Z,85.89
2023-05-01T23:45:19.137Z,85.64
2023-05-01T23:47:45.591Z,85.81
2023-05-01T23:50:11.969Z,85.76
2023-05-01T23:52:38.299Z,85.69
2023-05-01T23:55:04.851Z,85.85
2023-05-01T23:57:31.179Z,85.83
2023-05-01T23:59:57.685Z,85.90
